»·PEaware :: DAL7150 KSFO-KLAX

DAL7150 :: KSFO-KLAX

FLIGHT INFORMATION

Flight Status: Arrived
Operator:
Delta Air Lines
More flights by this operator :: More flights under this callsign
Pilot: John H. (20300)
Aircraft: Unknown
(/L)
More flights by this aircraft type
Origin: KSFO San Francisco Intl
United States
Destination: KLAX Los Angeles Intl
United States
More flights between these airports :: More routes between these airports
Route: +SSTIK4 EBAYE BURGL IRNM2
File this flight plan on PilotEdge
Remarks:
Altitude:
(Current/Filed)
37,000ft
Speed:
(Current/Filed)
490kts
Departed: 30-Sep-18 09:13 AM
Arrived: 30-Sep-18 10:22 AM
Distance/Time
Traveled:
293nm/1:09
Distance/Time
To Go:
Arrived

Flight Plot

Page will automatically refresh every two minutes.

Flight plan parsing failed; only flown route is shown


Map Options




Map Legend


Flown Route
Filed Route
Departure Airport
Arrival Airport
Navaid (VOR, NDB)
Fix

Horizontal Profiles

Position Reports

Time Latitude Longitude Heading Altitude Ground
Speed
30-Sep-18 08:55 37.616763 -122.380546 307 27ft 0kts
30-Sep-18 08:56 37.616763 -122.380546 307 27ft 0kts
30-Sep-18 08:57 37.616763 -122.380546 307 27ft 0kts
30-Sep-18 08:58 37.616763 -122.380546 307 27ft 0kts
30-Sep-18 08:59 37.616763 -122.380546 307 27ft 0kts
30-Sep-18 09:00 37.616763 -122.380546 307 27ft 0kts
30-Sep-18 09:01 37.616763 -122.380546 307 27ft 0kts
30-Sep-18 09:02 37.616763 -122.380546 307 27ft 0kts
30-Sep-18 09:03 37.616763 -122.380546 307 27ft 0kts
30-Sep-18 09:04 37.616763 -122.380546 307 27ft 0kts
30-Sep-18 09:05 37.616662 -122.380380 307 27ft 2kts
30-Sep-18 09:06 37.616339 -122.379853 307 27ft 0kts
30-Sep-18 09:07 37.616251 -122.379708 307 27ft 2kts
30-Sep-18 09:08 37.616222 -122.379661 307 27ft 0kts
30-Sep-18 09:09 37.616222 -122.379661 307 27ft 0kts
30-Sep-18 09:10 37.615985 -122.380052 209 27ft 6kts
30-Sep-18 09:11 37.613613 -122.381621 207 27ft 13kts
30-Sep-18 09:12 37.610653 -122.382535 135 27ft 0kts
30-Sep-18 09:13 37.610600 -122.381871 115 27ft 0kts
30-Sep-18 09:14 37.610599 -122.381868 114 27ft 0kts
30-Sep-18 09:15 37.611827 -122.380206 28 27ft 67kts
30-Sep-18 09:16 37.662263 -122.364344 5 3296ft 200kts
30-Sep-18 09:17 37.712714 -122.369107 314 5882ft 246kts
30-Sep-18 09:18 37.692116 -122.436562 192 8234ft 265kts
30-Sep-18 09:19 37.617569 -122.449861 191 10562ft 285kts
30-Sep-18 09:20 37.534780 -122.465924 192 12873ft 308kts
30-Sep-18 09:21 37.454874 -122.430409 137 15177ft 348kts
30-Sep-18 09:22 37.388491 -122.336874 140 17647ft 370kts
30-Sep-18 09:23 37.315660 -122.238703 140 20260ft 396kts
30-Sep-18 09:24 37.239389 -122.135496 141 22871ft 408kts
30-Sep-18 09:25 37.161244 -122.030199 142 25350ft 416kts
30-Sep-18 09:26 37.081163 -121.922554 142 27359ft 428kts
30-Sep-18 09:27 36.998915 -121.812422 142 29372ft 433kts
30-Sep-18 09:28 36.916639 -121.702651 143 31382ft 432kts
30-Sep-18 09:29 36.834625 -121.593535 143 33391ft 428kts
30-Sep-18 09:30 36.753744 -121.486337 145 35400ft 419kts
30-Sep-18 09:31 36.674800 -121.382033 141 37010ft 414kts
30-Sep-18 09:32 36.595422 -121.277537 141 37037ft 415kts
30-Sep-18 09:33 36.515829 -121.173046 141 37034ft 415kts
30-Sep-18 09:34 36.436457 -121.069085 141 37037ft 415kts
30-Sep-18 09:35 36.360465 -120.960359 138 37049ft 417kts
30-Sep-18 09:36 36.282433 -120.848704 138 37048ft 443kts
30-Sep-18 09:37 36.200197 -120.730963 138 37039ft 454kts
30-Sep-18 09:38 36.116935 -120.612448 141 37031ft 459kts
30-Sep-18 09:39 36.033012 -120.493158 141 37030ft 459kts
30-Sep-18 09:40 35.948973 -120.374348 141 37030ft 460kts
30-Sep-18 09:41 35.863440 -120.257882 151 37023ft 445kts
30-Sep-18 09:42 35.760358 -120.179278 159 37030ft 435kts
30-Sep-18 09:43 35.656999 -120.101123 158 37029ft 436kts
30-Sep-18 09:44 35.555678 -120.024579 158 35301ft 422kts
30-Sep-18 09:45 35.456455 -119.950046 157 32745ft 411kts
30-Sep-18 09:46 35.360966 -119.878456 157 30415ft 395kts
30-Sep-18 09:47 35.269593 -119.806922 150 29021ft 387kts
30-Sep-18 09:48 35.182694 -119.725444 150 28990ft 389kts
30-Sep-18 09:49 35.098606 -119.647035 150 27134ft 378kts
30-Sep-18 09:50 35.014635 -119.568930 150 27075ft 378kts
30-Sep-18 09:51 34.930991 -119.491386 150 27079ft 378kts
30-Sep-18 09:52 34.847979 -119.416268 151 25699ft 367kts
30-Sep-18 09:53 34.759894 -119.337829 149 24069ft 405kts
30-Sep-18 09:54 34.668292 -119.257342 150 23518ft 393kts
30-Sep-18 09:55 34.577867 -119.179279 150 23000ft 400kts
30-Sep-18 09:56 34.490068 -119.101845 149 20505ft 390kts
30-Sep-18 09:57 34.403705 -119.025825 150 18477ft 376kts
30-Sep-18 09:58 34.320314 -118.953600 148 16970ft 366kts
30-Sep-18 09:59 34.243563 -118.883007 149 16461ft 319kts
30-Sep-18 10:00 34.174229 -118.819427 148 14804ft 309kts
30-Sep-18 10:01 34.110232 -118.751408 143 13144ft 302kts
30-Sep-18 10:02 34.048737 -118.684663 143 11429ft 293kts
30-Sep-18 10:03 33.996865 -118.611523 101 9592ft 300kts
30-Sep-18 10:04 34.002693 -118.512883 81 8033ft 293kts
30-Sep-18 10:05 34.018203 -118.416211 81 7991ft 293kts
30-Sep-18 10:06 34.032653 -118.319334 82 7993ft 293kts
30-Sep-18 10:07 34.019384 -118.229446 118 7719ft 249kts
30-Sep-18 10:08 34.013798 -118.151592 81 6148ft 240kts
30-Sep-18 10:09 34.024501 -118.073143 81 4712ft 234kts
30-Sep-18 10:10 34.031349 -118.008020 82 3995ft 226kts
30-Sep-18 10:11 34.039109 -117.934033 81 4025ft 222kts
30-Sep-18 10:12 34.041175 -117.860229 120 4021ft 225kts
30-Sep-18 10:13 33.991419 -117.865289 252 4037ft 223kts
30-Sep-18 10:14 33.986410 -117.939225 267 4041ft 222kts
30-Sep-18 10:15 33.981409 -118.013388 265 4026ft 219kts
30-Sep-18 10:16 33.976993 -118.079452 265 3492ft 173kts
30-Sep-18 10:17 33.973729 -118.135423 265 2552ft 165kts
30-Sep-18 10:18 33.970222 -118.190749 260 2535ft 165kts
30-Sep-18 10:19 33.968656 -118.245191 257 2472ft 166kts
30-Sep-18 10:20 33.963455 -118.293734 263 2347ft 133kts
30-Sep-18 10:21 33.959021 -118.334859 266 1502ft 139kts
30-Sep-18 10:22 33.954755 -118.378516 262 589ft 129kts
30-Sep-18 10:23 33.950452 -118.418596 263 140ft 82kts
30-Sep-18 10:24 33.949209 -118.425831 231 140ft 0kts
30-Sep-18 10:25 33.949190 -118.425860 231 140ft 2kts
30-Sep-18 10:26 33.947171 -118.427614 183 140ft 0kts
30-Sep-18 10:27 33.947171 -118.427614 183 140ft 0kts
30-Sep-18 10:28 33.947152 -118.427616 183 140ft 1kts
30-Sep-18 10:29 33.946784 -118.424191 82 140ft 22kts
30-Sep-18 10:30 33.947591 -118.416569 82 140ft 23kts
30-Sep-18 10:31 33.948307 -118.409311 106 140ft 10kts
30-Sep-18 10:32 33.946056 -118.409033 191 140ft 7kts
30-Sep-18 10:33 33.945874 -118.409854 267 140ft 0kts

Navigation Log

Ident Type
Flight plan parsing failed, navigation log unavailable